sensor_id;sensor_type;location;lat;lon;timestamp;P1;durP1;ratioP1;P2;durP2;ratioP2
7843;SDS011;3967;48.702;9.326;2023-05-23T00:00:57;7.73;;;7.07;;
7843;SDS011;3967;48.702;9.326;2023-05-23T00:03:24;7.83;;;7.10;;
7843;SDS011;3967;48.702;9.326;2023-05-23T00:05:52;8.53;;;7.67;;
7843;SDS011;3967;48.702;9.326;2023-05-23T00:08:19;8.17;;;7.00;;
7843;SDS011;3967;48.702;9.326;2023-05-23T00:10:45;9.27;;;8.00;;
7843;SDS011;3967;48.702;9.326;2023-05-23T00:13:12;8.77;;;7.67;;
7843;SDS011;3967;48.702;9.326;2023-05-23T00:15:40;7.93;;;7.23;;
7843;SDS011;3967;48.702;9.326;2023-05-23T00:18:07;10.07;;;9.07;;
7843;SDS011;3967;48.702;9.326;2023-05-23T00:20:36;10.03;;;9.03;;
7843;SDS011;3967;48.702;9.326;2023-05-23T00:23:10;9.17;;;8.37;;
7843;SDS011;3967;48.702;9.326;2023-05-23T00:25:44;9.80;;;8.83;;
7843;SDS011;3967;48.702;9.326;2023-05-23T00:28:17;8.53;;;7.63;;
7843;SDS011;3967;48.702;9.326;2023-05-23T00:30:44;9.67;;;8.70;;
7843;SDS011;3967;48.702;9.326;2023-05-23T00:33:11;10.00;;;8.97;;
7843;SDS011;3967;48.702;9.326;2023-05-23T00:35:42;9.97;;;8.97;;
7843;SDS011;3967;48.702;9.326;2023-05-23T00:38:09;10.90;;;8.60;;
7843;SDS011;3967;48.702;9.326;2023-05-23T00:40:36;9.17;;;8.23;;
7843;SDS011;3967;48.702;9.326;2023-05-23T00:43:03;9.37;;;8.43;;
7843;SDS011;3967;48.702;9.326;2023-05-23T00:45:30;8.33;;;7.53;;
7843;SDS011;3967;48.702;9.326;2023-05-23T00:47:57;9.97;;;8.80;;
7843;SDS011;3967;48.702;9.326;2023-05-23T00:50:25;9.57;;;8.47;;
7843;SDS011;3967;48.702;9.326;2023-05-23T00:52:56;9.33;;;8.43;;
7843;SDS011;3967;48.702;9.326;2023-05-23T00:55:25;9.43;;;8.50;;
7843;SDS011;3967;48.702;9.326;2023-05-23T00:57:53;9.27;;;8.33;;
7843;SDS011;3967;48.702;9.326;2023-05-23T01:00:22;9.60;;;8.10;;
7843;SDS011;3967;48.702;9.326;2023-05-23T01:02:50;10.93;;;9.80;;
7843;SDS011;3967;48.702;9.326;2023-05-23T01:05:19;12.13;;;9.67;;
7843;SDS011;3967;48.702;9.326;2023-05-23T01:07:48;10.20;;;8.80;;
7843;SDS011;3967;48.702;9.326;2023-05-23T01:10:16;10.17;;;9.27;;
7843;SDS011;3967;48.702;9.326;2023-05-23T01:18:29;13.10;;;10.27;;
7843;SDS011;3967;48.702;9.326;2023-05-23T01:21:13;15.00;;;11.20;;
7843;SDS011;3967;48.702;9.326;2023-05-23T01:26:45;13.67;;;11.40;;
7843;SDS011;3967;48.702;9.326;2023-05-23T01:29:30;11.33;;;10.23;;
7843;SDS011;3967;48.702;9.326;2023-05-23T01:31:59;12.10;;;10.60;;
7843;SDS011;3967;48.702;9.326;2023-05-23T01:34:29;16.43;;;12.70;;
7843;SDS011;3967;48.702;9.326;2023-05-23T01:36:58;18.30;;;14.97;;
7843;SDS011;3967;48.702;9.326;2023-05-23T01:39:24;20.30;;;16.97;;
7843;SDS011;3967;48.702;9.326;2023-05-23T01:41:51;19.07;;;14.70;;
7843;SDS011;3967;48.702;9.326;2023-05-23T01:44:19;18.17;;;14.43;;
7843;SDS011;3967;48.702;9.326;2023-05-23T01:46:46;19.20;;;15.33;;
7843;SDS011;3967;48.702;9.326;2023-05-23T01:49:13;16.97;;;13.33;;
7843;SDS011;3967;48.702;9.326;2023-05-23T01:51:42;17.17;;;14.37;;
7843;SDS011;3967;48.702;9.326;2023-05-23T01:54:09;16.23;;;13.20;;
7843;SDS011;3967;48.702;9.326;2023-05-23T01:56:36;16.93;;;13.70;;
7843;SDS011;3967;48.702;9.326;2023-05-23T01:59:03;17.27;;;14.13;;
7843;SDS011;3967;48.702;9.326;2023-05-23T02:01:32;17.23;;;14.00;;
7843;SDS011;3967;48.702;9.326;2023-05-23T02:03:59;20.07;;;14.43;;
7843;SDS011;3967;48.702;9.326;2023-05-23T02:06:26;16.37;;;14.60;;
7843;SDS011;3967;48.702;9.326;2023-05-23T02:08:53;18.80;;;14.30;;
7843;SDS011;3967;48.702;9.326;2023-05-23T02:11:19;19.07;;;14.53;;
7843;SDS011;3967;48.702;9.326;2023-05-23T02:13:47;21.23;;;17.73;;
7843;SDS011;3967;48.702;9.326;2023-05-23T02:16:14;20.50;;;16.57;;
7843;SDS011;3967;48.702;9.326;2023-05-23T02:18:41;22.00;;;16.70;;
7843;SDS011;3967;48.702;9.326;2023-05-23T02:21:07;19.20;;;15.10;;
7843;SDS011;3967;48.702;9.326;2023-05-23T02:23:34;18.93;;;15.60;;
7843;SDS011;3967;48.702;9.326;2023-05-23T02:26:01;17.23;;;13.67;;
7843;SDS011;3967;48.702;9.326;2023-05-23T02:28:28;19.07;;;14.50;;
7843;SDS011;3967;48.702;9.326;2023-05-23T02:30:55;17.87;;;14.63;;
7843;SDS011;3967;48.702;9.326;2023-05-23T02:33:22;22.33;;;17.40;;
7843;SDS011;3967;48.702;9.326;2023-05-23T02:35:48;18.83;;;15.23;;
7843;SDS011;3967;48.702;9.326;2023-05-23T02:38:16;19.40;;;15.90;;
7843;SDS011;3967;48.702;9.326;2023-05-23T02:40:45;20.57;;;15.90;;
7843;SDS011;3967;48.702;9.326;2023-05-23T02:43:12;21.33;;;16.47;;
7843;SDS011;3967;48.702;9.326;2023-05-23T02:45:39;18.80;;;15.17;;
7843;SDS011;3967;48.702;9.326;2023-05-23T02:48:06;19.63;;;16.37;;
7843;SDS011;3967;48.702;9.326;2023-05-23T02:50:33;28.37;;;19.33;;
7843;SDS011;3967;48.702;9.326;2023-05-23T02:53:00;21.10;;;16.90;;
7843;SDS011;3967;48.702;9.326;2023-05-23T02:55:27;21.80;;;17.47;;
7843;SDS011;3967;48.702;9.326;2023-05-23T02:57:54;23.80;;;18.07;;
7843;SDS011;3967;48.702;9.326;2023-05-23T03:00:21;24.23;;;18.33;;
7843;SDS011;3967;48.702;9.326;2023-05-23T03:02:48;23.10;;;17.77;;
7843;SDS011;3967;48.702;9.326;2023-05-23T03:05:15;24.77;;;19.20;;
7843;SDS011;3967;48.702;9.326;2023-05-23T03:07:42;24.27;;;19.27;;
7843;SDS011;3967;48.702;9.326;2023-05-23T03:10:09;26.73;;;19.60;;
7843;SDS011;3967;48.702;9.326;2023-05-23T03:12:36;30.47;;;21.17;;
7843;SDS011;3967;48.702;9.326;2023-05-23T03:15:03;32.50;;;22.90;;
7843;SDS011;3967;48.702;9.326;2023-05-23T03:17:30;34.90;;;22.70;;
7843;SDS011;3967;48.702;9.326;2023-05-23T03:19:57;30.07;;;22.53;;
7843;SDS011;3967;48.702;9.326;2023-05-23T03:22:23;32.63;;;23.77;;
7843;SDS011;3967;48.702;9.326;2023-05-23T03:24:50;35.63;;;25.87;;
7843;SDS011;3967;48.702;9.326;2023-05-23T03:27:17;40.33;;;27.73;;
7843;SDS011;3967;48.702;9.326;2023-05-23T03:29:43;49.50;;;31.70;;
7843;SDS011;3967;48.702;9.326;2023-05-23T03:32:10;57.40;;;38.00;;
7843;SDS011;3967;48.702;9.326;2023-05-23T03:34:37;57.07;;;37.13;;
7843;SDS011;3967;48.702;9.326;2023-05-23T03:37:04;47.70;;;33.60;;
7843;SDS011;3967;48.702;9.326;2023-05-23T03:39:30;53.57;;;35.00;;
7843;SDS011;3967;48.702;9.326;2023-05-23T03:41:57;57.97;;;37.87;;
7843;SDS011;3967;48.702;9.326;2023-05-23T03:44:24;74.20;;;45.77;;
7843;SDS011;3967;48.702;9.326;2023-05-23T03:46:51;75.77;;;47.07;;
7843;SDS011;3967;48.702;9.326;2023-05-23T03:49:18;74.80;;;47.07;;
7843;SDS011;3967;48.702;9.326;2023-05-23T03:51:45;74.53;;;48.93;;
7843;SDS011;3967;48.702;9.326;2023-05-23T03:54:11;77.53;;;46.33;;
7843;SDS011;3967;48.702;9.326;2023-05-23T03:56:38;69.33;;;42.93;;
7843;SDS011;3967;48.702;9.326;2023-05-23T03:59:05;68.87;;;44.43;;
7843;SDS011;3967;48.702;9.326;2023-05-23T04:01:31;71.37;;;46.60;;
7843;SDS011;3967;48.702;9.326;2023-05-23T04:03:58;66.67;;;45.10;;
7843;SDS011;3967;48.702;9.326;2023-05-23T04:06:25;64.23;;;44.67;;
7843;SDS011;3967;48.702;9.326;2023-05-23T04:08:55;67.17;;;44.57;;
7843;SDS011;3967;48.702;9.326;2023-05-23T04:11:22;64.90;;;43.37;;
7843;SDS011;3967;48.702;9.326;2023-05-23T04:13:48;60.53;;;40.93;;
7843;SDS011;3967;48.702;9.326;2023-05-23T04:16:17;66.43;;;44.10;;
7843;SDS011;3967;48.702;9.326;2023-05-23T04:18:44;61.50;;;41.60;;
7843;SDS011;3967;48.702;9.326;2023-05-23T04:21:12;58.27;;;40.10;;
7843;SDS011;3967;48.702;9.326;2023-05-23T04:23:39;63.80;;;43.07;;
7843;SDS011;3967;48.702;9.326;2023-05-23T04:26:05;63.57;;;43.23;;
7843;SDS011;3967;48.702;9.326;2023-05-23T04:28:33;59.30;;;40.30;;
7843;SDS011;3967;48.702;9.326;2023-05-23T04:30:59;69.37;;;42.80;;
7843;SDS011;3967;48.702;9.326;2023-05-23T04:33:28;54.60;;;39.57;;
7843;SDS011;3967;48.702;9.326;2023-05-23T04:35:55;69.47;;;45.73;;
7843;SDS011;3967;48.702;9.326;2023-05-23T04:38:22;59.57;;;40.13;;
7843;SDS011;3967;48.702;9.326;2023-05-23T04:40:50;57.10;;;38.83;;
7843;SDS011;3967;48.702;9.326;2023-05-23T04:43:20;58.97;;;39.70;;
7843;SDS011;3967;48.702;9.326;2023-05-23T04:45:47;62.43;;;42.90;;
7843;SDS011;3967;48.702;9.326;2023-05-23T04:48:19;58.20;;;41.57;;
7843;SDS011;3967;48.702;9.326;2023-05-23T04:50:47;66.07;;;43.07;;
7843;SDS011;3967;48.702;9.326;2023-05-23T04:53:16;58.57;;;42.43;;
7843;SDS011;3967;48.702;9.326;2023-05-23T04:55:43;61.60;;;41.83;;
7843;SDS011;3967;48.702;9.326;2023-05-23T04:58:10;54.90;;;38.50;;
7843;SDS011;3967;48.702;9.326;2023-05-23T05:00:38;57.90;;;41.23;;
7843;SDS011;3967;48.702;9.326;2023-05-23T05:03:05;62.83;;;41.97;;
7843;SDS011;3967;48.702;9.326;2023-05-23T05:05:34;62.63;;;41.90;;
7843;SDS011;3967;48.702;9.326;2023-05-23T05:08:01;60.27;;;41.57;;
7843;SDS011;3967;48.702;9.326;2023-05-23T05:10:28;59.80;;;43.50;;
7843;SDS011;3967;48.702;9.326;2023-05-23T05:12:55;56.93;;;40.17;;
7843;SDS011;3967;48.702;9.326;2023-05-23T05:15:21;60.77;;;43.10;;
7843;SDS011;3967;48.702;9.326;2023-05-23T05:17:48;60.30;;;42.73;;
7843;SDS011;3967;48.702;9.326;2023-05-23T05:20:15;60.90;;;39.83;;
7843;SDS011;3967;48.702;9.326;2023-05-23T05:22:42;59.17;;;41.63;;
7843;SDS011;3967;48.702;9.326;2023-05-23T05:25:09;60.20;;;39.57;;
7843;SDS011;3967;48.702;9.326;2023-05-23T05:27:37;61.33;;;41.40;;
7843;SDS011;3967;48.702;9.326;2023-05-23T05:30:06;55.70;;;40.27;;
7843;SDS011;3967;48.702;9.326;2023-05-23T05:32:33;55.90;;;39.83;;
7843;SDS011;3967;48.702;9.326;2023-05-23T05:35:01;56.83;;;41.00;;
7843;SDS011;3967;48.702;9.326;2023-05-23T05:37:28;57.00;;;41.60;;
7843;SDS011;3967;48.702;9.326;2023-05-23T05:39:55;54.83;;;39.23;;
7843;SDS011;3967;48.702;9.326;2023-05-23T05:42:24;58.03;;;41.70;;
7843;SDS011;3967;48.702;9.326;2023-05-23T05:44:51;52.93;;;40.47;;
7843;SDS011;3967;48.702;9.326;2023-05-23T05:47:18;58.80;;;41.30;;
7843;SDS011;3967;48.702;9.326;2023-05-23T05:49:45;54.97;;;42.03;;
7843;SDS011;3967;48.702;9.326;2023-05-23T05:52:12;57.17;;;38.97;;
7843;SDS011;3967;48.702;9.326;2023-05-23T05:54:38;55.80;;;40.47;;
7843;SDS011;3967;48.702;9.326;2023-05-23T05:57:08;60.87;;;41.80;;
7843;SDS011;3967;48.702;9.326;2023-05-23T05:59:35;58.87;;;39.67;;
7843;SDS011;3967;48.702;9.326;2023-05-23T06:02:01;56.13;;;38.63;;
7843;SDS011;3967;48.702;9.326;2023-05-23T06:04:28;53.20;;;37.60;;
7843;SDS011;3967;48.702;9.326;2023-05-23T06:06:55;52.27;;;38.77;;
7843;SDS011;3967;48.702;9.326;2023-05-23T06:09:23;53.30;;;38.83;;
7843;SDS011;3967;48.702;9.326;2023-05-23T06:11:50;51.20;;;36.80;;
7843;SDS011;3967;48.702;9.326;2023-05-23T06:14:17;50.43;;;36.53;;
7843;SDS011;3967;48.702;9.326;2023-05-23T06:16:44;49.20;;;37.13;;
7843;SDS011;3967;48.702;9.326;2023-05-23T06:19:11;48.83;;;36.23;;
7843;SDS011;3967;48.702;9.326;2023-05-23T06:21:38;52.17;;;37.90;;
7843;SDS011;3967;48.702;9.326;2023-05-23T06:24:05;50.80;;;37.10;;
7843;SDS011;3967;48.702;9.326;2023-05-23T06:26:32;48.50;;;36.47;;
7843;SDS011;3967;48.702;9.326;2023-05-23T06:28:59;48.70;;;36.97;;
7843;SDS011;3967;48.702;9.326;2023-05-23T06:31:26;46.90;;;36.10;;
7843;SDS011;3967;48.702;9.326;2023-05-23T06:33:52;50.00;;;35.17;;
7843;SDS011;3967;48.702;9.326;2023-05-23T06:36:19;44.80;;;34.13;;
7843;SDS011;3967;48.702;9.326;2023-05-23T06:38:46;45.03;;;34.00;;
7843;SDS011;3967;48.702;9.326;2023-05-23T06:41:13;44.77;;;34.33;;
7843;SDS011;3967;48.702;9.326;2023-05-23T06:43:40;42.57;;;34.73;;
7843;SDS011;3967;48.702;9.326;2023-05-23T06:46:06;47.03;;;35.67;;
7843;SDS011;3967;48.702;9.326;2023-05-23T06:48:33;48.07;;;36.50;;
7843;SDS011;3967;48.702;9.326;2023-05-23T06:51:00;46.87;;;35.80;;
7843;SDS011;3967;48.702;9.326;2023-05-23T06:53:27;43.90;;;35.83;;
7843;SDS011;3967;48.702;9.326;2023-05-23T06:55:53;44.03;;;35.87;;
7843;SDS011;3967;48.702;9.326;2023-05-23T06:58:21;46.83;;;36.53;;
7843;SDS011;3967;48.702;9.326;2023-05-23T07:00:50;48.43;;;34.70;;
7843;SDS011;3967;48.702;9.326;2023-05-23T07:03:16;48.87;;;35.43;;
7843;SDS011;3967;48.702;9.326;2023-05-23T07:05:43;45.07;;;35.03;;
7843;SDS011;3967;48.702;9.326;2023-05-23T07:08:10;49.20;;;37.73;;
7843;SDS011;3967;48.702;9.326;2023-05-23T07:10:37;46.83;;;36.67;;
7843;SDS011;3967;48.702;9.326;2023-05-23T07:13:07;44.37;;;33.90;;
7843;SDS011;3967;48.702;9.326;2023-05-23T07:15:33;42.97;;;34.90;;
7843;SDS011;3967;48.702;9.326;2023-05-23T07:18:00;47.70;;;36.10;;
7843;SDS011;3967;48.702;9.326;2023-05-23T07:20:27;40.13;;;33.67;;
7843;SDS011;3967;48.702;9.326;2023-05-23T07:22:54;46.07;;;35.97;;
7843;SDS011;3967;48.702;9.326;2023-05-23T07:25:20;42.47;;;36.57;;
7843;SDS011;3967;48.702;9.326;2023-05-23T07:27:48;45.60;;;37.07;;
7843;SDS011;3967;48.702;9.326;2023-05-23T07:30:15;45.03;;;38.07;;
7843;SDS011;3967;48.702;9.326;2023-05-23T07:32:42;40.93;;;35.93;;
7843;SDS011;3967;48.702;9.326;2023-05-23T07:35:09;45.83;;;37.90;;
7843;SDS011;3967;48.702;9.326;2023-05-23T07:37:36;46.83;;;37.63;;
7843;SDS011;3967;48.702;9.326;2023-05-23T07:40:03;47.57;;;38.27;;
7843;SDS011;3967;48.702;9.326;2023-05-23T07:42:30;47.00;;;37.60;;
7843;SDS011;3967;48.702;9.326;2023-05-23T07:44:57;46.77;;;36.93;;
7843;SDS011;3967;48.702;9.326;2023-05-23T07:47:26;45.20;;;36.00;;
7843;SDS011;3967;48.702;9.326;2023-05-23T07:49:53;49.17;;;38.27;;
7843;SDS011;3967;48.702;9.326;2023-05-23T07:52:20;47.80;;;35.97;;
7843;SDS011;3967;48.702;9.326;2023-05-23T07:54:47;45.67;;;34.90;;
7843;SDS011;3967;48.702;9.326;2023-05-23T07:57:14;38.77;;;32.30;;
7843;SDS011;3967;48.702;9.326;2023-05-23T07:59:41;37.30;;;30.10;;
7843;SDS011;3967;48.702;9.326;2023-05-23T08:02:08;36.20;;;29.50;;
7843;SDS011;3967;48.702;9.326;2023-05-23T08:04:35;33.43;;;27.43;;
7843;SDS011;3967;48.702;9.326;2023-05-23T08:07:02;30.40;;;27.20;;
7843;SDS011;3967;48.702;9.326;2023-05-23T08:09:31;29.50;;;26.43;;
7843;SDS011;3967;48.702;9.326;2023-05-23T08:11:58;30.73;;;27.47;;
7843;SDS011;3967;48.702;9.326;2023-05-23T08:14:26;35.23;;;28.53;;
7843;SDS011;3967;48.702;9.326;2023-05-23T08:17:13;35.13;;;28.70;;
7843;SDS011;3967;48.702;9.326;2023-05-23T08:19:40;36.43;;;29.43;;
7843;SDS011;3967;48.702;9.326;2023-05-23T08:22:07;34.90;;;30.43;;
7843;SDS011;3967;48.702;9.326;2023-05-23T08:24:34;36.47;;;30.67;;
7843;SDS011;3967;48.702;9.326;2023-05-23T08:27:01;34.07;;;30.33;;
7843;SDS011;3967;48.702;9.326;2023-05-23T08:29:27;37.20;;;31.00;;
7843;SDS011;3967;48.702;9.326;2023-05-23T08:31:54;36.67;;;31.60;;
7843;SDS011;3967;48.702;9.326;2023-05-23T08:34:21;35.40;;;30.07;;
7843;SDS011;3967;48.702;9.326;2023-05-23T08:36:48;34.53;;;28.17;;
7843;SDS011;3967;48.702;9.326;2023-05-23T08:39:14;32.43;;;27.30;;
7843;SDS011;3967;48.702;9.326;2023-05-23T08:41:41;29.23;;;25.13;;
7843;SDS011;3967;48.702;9.326;2023-05-23T08:44:08;26.37;;;23.53;;
7843;SDS011;3967;48.702;9.326;2023-05-23T08:46:39;25.67;;;22.90;;
7843;SDS011;3967;48.702;9.326;2023-05-23T08:49:11;24.80;;;21.87;;
7843;SDS011;3967;48.702;9.326;2023-05-23T08:51:43;26.27;;;21.43;;
7843;SDS011;3967;48.702;9.326;2023-05-23T08:54:10;23.80;;;21.27;;
7843;SDS011;3967;48.702;9.326;2023-05-23T08:56:40;23.33;;;20.87;;
7843;SDS011;3967;48.702;9.326;2023-05-23T08:59:09;23.53;;;21.07;;
7843;SDS011;3967;48.702;9.326;2023-05-23T09:01:37;23.27;;;20.43;;
7843;SDS011;3967;48.702;9.326;2023-05-23T09:04:05;22.13;;;19.87;;
7843;SDS011;3967;48.702;9.326;2023-05-23T09:06:33;22.00;;;18.57;;
7843;SDS011;3967;48.702;9.326;2023-05-23T09:09:00;21.43;;;19.07;;
7843;SDS011;3967;48.702;9.326;2023-05-23T09:11:27;21.07;;;18.87;;
7843;SDS011;3967;48.702;9.326;2023-05-23T09:13:54;22.07;;;19.13;;
7843;SDS011;3967;48.702;9.326;2023-05-23T09:16:21;21.87;;;19.03;;
7843;SDS011;3967;48.702;9.326;2023-05-23T09:18:48;21.60;;;19.20;;
7843;SDS011;3967;48.702;9.326;2023-05-23T09:21:15;22.47;;;18.30;;
7843;SDS011;3967;48.702;9.326;2023-05-23T09:23:42;23.90;;;18.07;;
7843;SDS011;3967;48.702;9.326;2023-05-23T09:26:09;20.37;;;17.33;;
7843;SDS011;3967;48.702;9.326;2023-05-23T09:28:38;21.63;;;18.77;;
7843;SDS011;3967;48.702;9.326;2023-05-23T09:31:07;20.13;;;18.03;;
7843;SDS011;3967;48.702;9.326;2023-05-23T09:33:38;19.23;;;17.00;;
7843;SDS011;3967;48.702;9.326;2023-05-23T09:36:15;20.33;;;17.93;;
7843;SDS011;3967;48.702;9.326;2023-05-23T09:38:43;18.83;;;16.20;;
7843;SDS011;3967;48.702;9.326;2023-05-23T09:41:12;20.67;;;18.47;;
7843;SDS011;3967;48.702;9.326;2023-05-23T09:43:48;18.87;;;17.00;;
7843;SDS011;3967;48.702;9.326;2023-05-23T09:46:20;21.13;;;18.93;;
7843;SDS011;3967;48.702;9.326;2023-05-23T09:48:47;18.23;;;16.33;;
7843;SDS011;3967;48.702;9.326;2023-05-23T09:51:19;18.77;;;16.77;;
7843;SDS011;3967;48.702;9.326;2023-05-23T09:53:47;17.87;;;15.87;;
7843;SDS011;3967;48.702;9.326;2023-05-23T09:56:18;19.80;;;17.50;;
7843;SDS011;3967;48.702;9.326;2023-05-23T09:58:48;20.13;;;17.30;;
7843;SDS011;3967;48.702;9.326;2023-05-23T10:01:16;18.00;;;16.27;;
7843;SDS011;3967;48.702;9.326;2023-05-23T10:03:44;17.57;;;15.67;;
7843;SDS011;3967;48.702;9.326;2023-05-23T10:06:16;18.43;;;16.43;;
7843;SDS011;3967;48.702;9.326;2023-05-23T10:09:03;17.77;;;15.20;;
7843;SDS011;3967;48.702;9.326;2023-05-23T10:14:01;16.70;;;14.90;;
7843;SDS011;3967;48.702;9.326;2023-05-23T10:19:33;16.03;;;14.33;;
7843;SDS011;3967;48.702;9.326;2023-05-23T10:22:25;17.87;;;15.37;;
7843;SDS011;3967;48.702;9.326;2023-05-23T10:24:53;15.93;;;14.30;;
7843;SDS011;3967;48.702;9.326;2023-05-23T10:27:20;18.07;;;15.23;;
7843;SDS011;3967;48.702;9.326;2023-05-23T10:29:47;16.27;;;14.47;;
7843;SDS011;3967;48.702;9.326;2023-05-23T10:32:14;16.07;;;13.93;;
7843;SDS011;3967;48.702;9.326;2023-05-23T10:34:51;18.53;;;14.47;;
7843;SDS011;3967;48.702;9.326;2023-05-23T10:37:28;14.17;;;12.67;;
7843;SDS011;3967;48.702;9.326;2023-05-23T10:40:21;15.97;;;13.93;;
7843;SDS011;3967;48.702;9.326;2023-05-23T10:45:30;14.40;;;12.53;;
7843;SDS011;3967;48.702;9.326;2023-05-23T10:48:22;16.43;;;13.97;;
7843;SDS011;3967;48.702;9.326;2023-05-23T10:53:36;15.17;;;13.07;;
7843;SDS011;3967;48.702;9.326;2023-05-23T10:56:08;15.73;;;14.03;;
7843;SDS011;3967;48.702;9.326;2023-05-23T10:58:39;16.83;;;13.17;;
7843;SDS011;3967;48.702;9.326;2023-05-23T11:01:07;14.23;;;12.77;;
7843;SDS011;3967;48.702;9.326;2023-05-23T11:06:04;14.93;;;13.43;;
7843;SDS011;3967;48.702;9.326;2023-05-23T11:08:37;13.80;;;12.40;;
7843;SDS011;3967;48.702;9.326;2023-05-23T11:11:14;13.63;;;12.27;;
7843;SDS011;3967;48.702;9.326;2023-05-23T11:13:56;13.70;;;12.40;;
7843;SDS011;3967;48.702;9.326;2023-05-23T11:16:28;14.00;;;12.10;;
7843;SDS011;3967;48.702;9.326;2023-05-23T11:21:49;12.70;;;11.40;;
7843;SDS011;3967;48.702;9.326;2023-05-23T11:24:20;11.87;;;10.77;;
7843;SDS011;3967;48.702;9.326;2023-05-23T11:26:51;12.77;;;10.93;;
7843;SDS011;3967;48.702;9.326;2023-05-23T11:29:26;11.93;;;10.63;;
7843;SDS011;3967;48.702;9.326;2023-05-23T11:31:56;11.37;;;10.20;;
7843;SDS011;3967;48.702;9.326;2023-05-23T11:34:26;11.00;;;9.80;;
7843;SDS011;3967;48.702;9.326;2023-05-23T11:36:53;10.10;;;9.10;;
7843;SDS011;3967;48.702;9.326;2023-05-23T11:39:21;10.13;;;9.23;;
7843;SDS011;3967;48.702;9.326;2023-05-23T11:41:53;10.63;;;9.53;;
7843;SDS011;3967;48.702;9.326;2023-05-23T11:44:27;10.80;;;9.70;;
7843;SDS011;3967;48.702;9.326;2023-05-23T11:46:58;9.63;;;8.77;;
7843;SDS011;3967;48.702;9.326;2023-05-23T11:49:27;9.47;;;8.57;;
7843;SDS011;3967;48.702;9.326;2023-05-23T11:51:57;8.80;;;7.90;;
7843;SDS011;3967;48.702;9.326;2023-05-23T11:54:25;9.10;;;8.13;;
7843;SDS011;3967;48.702;9.326;2023-05-23T11:56:53;12.73;;;8.13;;
7843;SDS011;3967;48.702;9.326;2023-05-23T11:59:21;9.27;;;8.47;;
7843;SDS011;3967;48.702;9.326;2023-05-23T12:01:49;9.03;;;8.03;;
7843;SDS011;3967;48.702;9.326;2023-05-23T12:04:15;7.93;;;7.20;;
7843;SDS011;3967;48.702;9.326;2023-05-23T12:06:44;8.07;;;7.30;;
7843;SDS011;3967;48.702;9.326;2023-05-23T12:09:12;8.13;;;7.40;;
7843;SDS011;3967;48.702;9.326;2023-05-23T12:11:40;8.57;;;7.50;;
7843;SDS011;3967;48.702;9.326;2023-05-23T12:14:08;11.03;;;7.47;;
7843;SDS011;3967;48.702;9.326;2023-05-23T12:16:44;8.73;;;7.93;;
7843;SDS011;3967;48.702;9.326;2023-05-23T12:19:12;9.50;;;8.57;;
7843;SDS011;3967;48.702;9.326;2023-05-23T12:21:43;8.83;;;8.03;;
7843;SDS011;3967;48.702;9.326;2023-05-23T12:24:23;10.00;;;9.00;;
7843;SDS011;3967;48.702;9.326;2023-05-23T12:26:59;9.57;;;8.77;;
7843;SDS011;3967;48.702;9.326;2023-05-23T12:29:28;9.43;;;8.53;;
7843;SDS011;3967;48.702;9.326;2023-05-23T12:32:00;9.60;;;8.70;;
7843;SDS011;3967;48.702;9.326;2023-05-23T12:34:28;9.07;;;8.00;;
7843;SDS011;3967;48.702;9.326;2023-05-23T12:36:55;9.33;;;8.53;;
7843;SDS011;3967;48.702;9.326;2023-05-23T12:39:43;9.23;;;8.37;;
7843;SDS011;3967;48.702;9.326;2023-05-23T12:42:10;9.00;;;8.10;;
7843;SDS011;3967;48.702;9.326;2023-05-23T12:44:39;8.10;;;7.40;;
7843;SDS011;3967;48.702;9.326;2023-05-23T12:47:06;7.07;;;6.47;;
7843;SDS011;3967;48.702;9.326;2023-05-23T12:49:33;8.67;;;6.80;;
7843;SDS011;3967;48.702;9.326;2023-05-23T12:52:00;7.13;;;6.53;;
7843;SDS011;3967;48.702;9.326;2023-05-23T12:54:27;7.73;;;7.13;;
7843;SDS011;3967;48.702;9.326;2023-05-23T12:56:56;7.40;;;6.80;;
7843;SDS011;3967;48.702;9.326;2023-05-23T12:59:23;7.87;;;7.20;;
7843;SDS011;3967;48.702;9.326;2023-05-23T13:01:50;7.43;;;6.73;;
7843;SDS011;3967;48.702;9.326;2023-05-23T13:04:17;6.93;;;6.33;;
7843;SDS011;3967;48.702;9.326;2023-05-23T13:06:44;8.67;;;7.17;;
7843;SDS011;3967;48.702;9.326;2023-05-23T13:09:10;7.47;;;6.87;;
7843;SDS011;3967;48.702;9.326;2023-05-23T13:11:37;8.37;;;6.90;;
7843;SDS011;3967;48.702;9.326;2023-05-23T13:14:04;8.50;;;6.87;;
7843;SDS011;3967;48.702;9.326;2023-05-23T13:16:31;7.23;;;6.57;;
7843;SDS011;3967;48.702;9.326;2023-05-23T13:18:58;7.30;;;6.70;;
7843;SDS011;3967;48.702;9.326;2023-05-23T13:21:25;7.53;;;6.73;;
7843;SDS011;3967;48.702;9.326;2023-05-23T13:23:52;6.97;;;6.33;;
7843;SDS011;3967;48.702;9.326;2023-05-23T13:26:19;8.70;;;6.50;;
7843;SDS011;3967;48.702;9.326;2023-05-23T13:28:46;9.83;;;6.27;;
7843;SDS011;3967;48.702;9.326;2023-05-23T13:31:13;6.53;;;5.90;;
7843;SDS011;3967;48.702;9.326;2023-05-23T13:33:40;7.17;;;6.57;;
7843;SDS011;3967;48.702;9.326;2023-05-23T13:36:07;6.33;;;5.80;;
7843;SDS011;3967;48.702;9.326;2023-05-23T13:38:33;6.13;;;5.53;;
7843;SDS011;3967;48.702;9.326;2023-05-23T13:41:00;5.90;;;5.50;;
7843;SDS011;3967;48.702;9.326;2023-05-23T13:43:27;5.20;;;4.77;;
7843;SDS011;3967;48.702;9.326;2023-05-23T13:45:54;6.60;;;6.00;;
7843;SDS011;3967;48.702;9.326;2023-05-23T13:48:21;5.63;;;5.13;;
7843;SDS011;3967;48.702;9.326;2023-05-23T13:50:48;5.73;;;5.30;;
7843;SDS011;3967;48.702;9.326;2023-05-23T13:53:14;7.70;;;5.57;;
7843;SDS011;3967;48.702;9.326;2023-05-23T13:55:42;5.20;;;4.80;;
7843;SDS011;3967;48.702;9.326;2023-05-23T13:58:10;4.70;;;4.37;;
7843;SDS011;3967;48.702;9.326;2023-05-23T14:00:38;4.17;;;3.93;;
7843;SDS011;3967;48.702;9.326;2023-05-23T14:03:05;4.47;;;4.07;;
7843;SDS011;3967;48.702;9.326;2023-05-23T14:05:33;4.13;;;3.73;;
7843;SDS011;3967;48.702;9.326;2023-05-23T14:08:01;4.20;;;3.97;;
7843;SDS011;3967;48.702;9.326;2023-05-23T14:10:29;6.87;;;4.33;;
7843;SDS011;3967;48.702;9.326;2023-05-23T14:12:58;4.80;;;4.40;;
7843;SDS011;3967;48.702;9.326;2023-05-23T14:15:25;4.90;;;4.50;;
7843;SDS011;3967;48.702;9.326;2023-05-23T14:17:53;4.47;;;4.07;;
7843;SDS011;3967;48.702;9.326;2023-05-23T14:20:21;4.60;;;4.30;;
7843;SDS011;3967;48.702;9.326;2023-05-23T14:22:48;4.50;;;4.20;;
7843;SDS011;3967;48.702;9.326;2023-05-23T14:25:16;4.97;;;4.47;;
7843;SDS011;3967;48.702;9.326;2023-05-23T14:27:43;4.77;;;4.30;;
7843;SDS011;3967;48.702;9.326;2023-05-23T14:30:10;4.20;;;3.80;;
7843;SDS011;3967;48.702;9.326;2023-05-23T14:32:38;4.60;;;4.13;;
7843;SDS011;3967;48.702;9.326;2023-05-23T14:35:05;4.30;;;4.00;;
7843;SDS011;3967;48.702;9.326;2023-05-23T14:37:34;5.77;;;4.13;;
7843;SDS011;3967;48.702;9.326;2023-05-23T14:40:01;4.00;;;3.70;;
7843;SDS011;3967;48.702;9.326;2023-05-23T14:42:28;4.30;;;4.00;;
7843;SDS011;3967;48.702;9.326;2023-05-23T14:44:55;4.30;;;3.90;;
7843;SDS011;3967;48.702;9.326;2023-05-23T14:47:22;5.50;;;4.37;;
7843;SDS011;3967;48.702;9.326;2023-05-23T14:49:49;3.73;;;3.43;;
7843;SDS011;3967;48.702;9.326;2023-05-23T14:52:15;4.10;;;3.80;;
7843;SDS011;3967;48.702;9.326;2023-05-23T14:54:42;4.27;;;3.83;;
7843;SDS011;3967;48.702;9.326;2023-05-23T14:57:09;4.07;;;3.77;;
7843;SDS011;3967;48.702;9.326;2023-05-23T14:59:36;4.67;;;3.60;;
7843;SDS011;3967;48.702;9.326;2023-05-23T15:02:03;3.33;;;3.03;;
7843;SDS011;3967;48.702;9.326;2023-05-23T15:04:31;4.13;;;3.47;;
7843;SDS011;3967;48.702;9.326;2023-05-23T15:06:58;3.90;;;3.60;;
7843;SDS011;3967;48.702;9.326;2023-05-23T15:09:26;3.63;;;3.30;;
7843;SDS011;3967;48.702;9.326;2023-05-23T15:11:53;3.70;;;3.50;;
7843;SDS011;3967;48.702;9.326;2023-05-23T15:14:20;3.13;;;2.93;;
7843;SDS011;3967;48.702;9.326;2023-05-23T15:16:48;3.97;;;2.93;;
7843;SDS011;3967;48.702;9.326;2023-05-23T15:19:15;3.50;;;3.30;;
7843;SDS011;3967;48.702;9.326;2023-05-23T15:21:42;2.83;;;2.63;;
7843;SDS011;3967;48.702;9.326;2023-05-23T15:24:16;2.93;;;2.70;;
7843;SDS011;3967;48.702;9.326;2023-05-23T15:26:43;2.90;;;2.70;;